Time;durP1;ratioP1;P1;durP2;ratioP2;P2;SDS_P1;SDS_P2;PMS_P1;PMS_P2;Temp;Humidity;BMP_temperature;BMP_pressure;BME280_temperature;BME280_humidity;BME280_pressure;Samples;Min_cycle;Max_cycle;Signal;HPM_P1;HPM_P2
2023/06/13 00:02:17;;;;;;;6.45;3.70;;;18.00;99.90;;;;;;12404389;28;20091;-38
2023/06/13 00:08:21;;;;;;;7.18;3.60;;;18.10;99.90;;;;;;12397620;28;20655;-38
2023/06/13 00:14:26;;;;;;;;;;;18.30;99.90;;;;;;12396897;28;20537;-38
2023/06/13 00:20:29;;;;;;;5.63;3.60;;;18.40;99.90;;;;;;12406752;28;20463;-38
2023/06/13 00:26:31;;;;;;;5.50;3.60;;;17.90;99.90;;;;;;12407749;28;20065;-38
2023/06/13 00:32:33;;;;;;;10.45;3.90;;;17.00;99.90;;;;;;12406610;28;20377;-40
2023/06/13 00:38:36;;;;;;;7.35;3.97;;;17.20;99.90;;;;;;12411157;28;20050;-38
2023/06/13 00:44:38;;;;;;;6.65;3.60;;;17.50;99.90;;;;;;12407459;28;20399;-38
2023/06/13 00:50:45;;;;;;;8.30;4.07;;;17.80;99.90;;;;;;12414655;28;20078;-38
2023/06/13 00:56:48;;;;;;;6.57;3.85;;;17.70;99.90;;;;;;12417061;28;20046;-38
2023/06/13 01:02:54;;;;;;;6.60;3.85;;;17.00;99.90;;;;;;12400373;28;20490;-38
2023/06/13 01:09:00;;;;;;;6.53;3.88;;;17.00;99.90;;;;;;12392609;28;20042;-38
2023/06/13 01:15:10;;;;;;;8.25;3.80;;;17.30;99.90;;;;;;12400309;28;20050;-38
2023/06/13 01:21:13;;;;;;;6.55;4.00;;;17.70;99.90;;;;;;12406298;28;20085;-38
2023/06/13 01:27:17;;;;;;;8.65;4.05;;;17.30;99.90;;;;;;12401148;28;20505;-38
2023/06/13 01:33:20;;;;;;;;;;;17.00;99.90;;;;;;12400817;28;20081;-38
2023/06/13 01:39:22;;;;;;;6.00;3.80;;;17.10;99.90;;;;;;12398053;28;19932;-38
2023/06/13 01:45:24;;;;;;;6.85;4.07;;;17.10;99.90;;;;;;12401692;28;20046;-38
2023/06/13 01:51:30;;;;;;;7.13;3.88;;;17.10;99.90;;;;;;12393154;28;20056;-38
2023/06/13 01:57:43;;;;;;;7.40;4.20;;;17.10;99.90;;;;;;12402411;28;20173;-38
2023/06/13 02:03:46;;;;;;;7.93;4.20;;;17.10;99.90;;;;;;12404889;28;20053;-38
2023/06/13 02:09:48;;;;;;;7.03;3.90;;;17.10;99.90;;;;;;12404141;28;20050;-38
2023/06/13 02:15:50;;;;;;;7.13;4.60;;;17.10;99.90;;;;;;12408569;28;20081;-38
2023/06/13 02:21:52;;;;;;;10.40;4.28;;;16.90;99.90;;;;;;12404932;28;20053;-38
2023/06/13 02:27:54;;;;;;;6.32;4.15;;;17.00;99.90;;;;;;12405321;28;20065;-38
2023/06/13 02:33:56;;;;;;;7.68;4.13;;;17.40;99.90;;;;;;12412894;28;20089;-38
2023/06/13 02:39:58;;;;;;;6.97;4.43;;;17.30;99.90;;;;;;12408279;28;20515;-38
2023/06/13 02:46:00;;;;;;;6.75;4.00;;;16.90;99.90;;;;;;12415914;28;20046;-39
2023/06/13 02:52:02;;;;;;;5.57;3.55;;;16.90;99.90;;;;;;12409993;28;20050;-38
2023/06/13 02:58:04;;;;;;;7.25;4.22;;;17.10;99.90;;;;;;12401121;28;20053;-38
2023/06/13 03:04:08;;;;;;;6.05;4.00;;;17.40;99.90;;;;;;12400350;28;20137;-38
2023/06/13 03:10:10;;;;;;;7.10;4.40;;;17.40;99.90;;;;;;12398966;28;20133;-38
2023/06/13 03:16:13;;;;;;;7.78;3.90;;;17.10;99.90;;;;;;12403380;28;20050;-38
2023/06/13 03:22:16;;;;;;;8.85;4.85;;;17.10;99.90;;;;;;12396019;28;20038;-38
2023/06/13 03:28:18;;;;;;;6.68;4.43;;;17.00;99.90;;;;;;12404237;28;20069;-38
2023/06/13 03:34:25;;;;;;;6.60;4.40;;;17.20;99.90;;;;;;12401932;28;20047;-38
2023/06/13 03:40:26;;;;;;;7.13;4.05;;;17.40;99.90;;;;;;12397240;28;20061;-38
2023/06/13 03:46:28;;;;;;;6.93;4.22;;;17.20;99.90;;;;;;12396868;28;20074;-38
2023/06/13 03:52:30;;;;;;;9.35;3.80;;;17.30;99.90;;;;;;12416832;28;20061;-38
2023/06/13 03:58:32;;;;;;;7.20;4.35;;;17.40;99.90;;;;;;12393378;28;20053;-38
2023/06/13 04:04:35;;;;;;;7.43;4.07;;;16.90;99.90;;;;;;12398052;28;20537;-38
2023/06/13 04:10:36;;;;;;;6.28;3.88;;;17.20;99.90;;;;;;12406091;28;20053;-37
2023/06/13 04:16:38;;;;;;;8.00;4.75;;;17.20;99.90;;;;;;12398858;28;20410;-38
2023/06/13 04:22:44;;;;;;;7.25;4.45;;;17.90;99.90;;;;;;12391493;28;20053;-38
2023/06/13 04:28:47;;;;;;;5.82;3.90;;;18.40;99.90;;;;;;12419087;28;20057;-38
2023/06/13 04:34:52;;;;;;;6.50;4.30;;;19.20;99.90;;;;;;12405420;28;20042;-39
2023/06/13 04:40:54;;;;;;;7.15;4.15;;;20.20;99.90;;;;;;12405325;28;20341;-38
2023/06/13 04:47:01;;;;;;;8.25;4.10;;;20.10;99.90;;;;;;12405328;28;20138;-38
2023/06/13 04:53:07;;;;;;;8.32;4.45;;;19.90;99.90;;;;;;12398486;28;20634;-38
2023/06/13 04:59:09;;;;;;;10.88;4.97;;;19.60;99.90;;;;;;12412125;28;20461;-38
2023/06/13 05:05:12;;;;;;;8.68;4.32;;;19.10;99.90;;;;;;12396622;28;20506;-38
2023/06/13 05:11:14;;;;;;;6.07;4.25;;;18.80;99.90;;;;;;12409997;28;20184;-38
2023/06/13 05:17:16;;;;;;;8.02;4.90;;;18.70;99.90;;;;;;12395280;28;20042;-38
2023/06/13 05:23:20;;;;;;;8.77;4.40;;;18.50;99.90;;;;;;12403357;28;20137;-38
2023/06/13 05:29:22;;;;;;;6.60;4.47;;;18.30;99.90;;;;;;12393227;28;20137;-38
2023/06/13 05:35:24;;;;;;;7.28;4.80;;;18.30;99.90;;;;;;12404869;28;20054;-39
2023/06/13 05:41:26;;;;;;;7.32;4.63;;;18.30;99.90;;;;;;12412319;28;20050;-39
2023/06/13 05:47:28;;;;;;;6.32;4.50;;;18.50;99.90;;;;;;12403788;28;20045;-38
2023/06/13 05:53:30;;;;;;;8.32;4.03;;;18.40;99.90;;;;;;12418389;28;20141;-38
2023/06/13 05:59:32;;;;;;;7.32;4.32;;;18.80;99.90;;;;;;12411494;28;20061;-39
2023/06/13 06:05:33;;;;;;;9.32;4.15;;;18.50;99.90;;;;;;12412850;28;20046;-39
2023/06/13 06:11:36;;;;;;;7.18;4.03;;;18.60;99.90;;;;;;12429990;28;20041;-39
2023/06/13 06:17:38;;;;;;;8.27;4.30;;;18.80;99.90;;;;;;12412487;28;20097;-39
2023/06/13 06:23:42;;;;;;;10.25;4.40;;;18.90;99.90;;;;;;12405047;28;20054;-39
2023/06/13 06:29:44;;;;;;;6.05;3.92;;;19.10;99.90;;;;;;12415990;28;20086;-39
2023/06/13 06:35:47;;;;;;;7.95;4.30;;;19.10;99.90;;;;;;12411938;28;20054;-39
2023/06/13 06:41:49;;;;;;;7.35;4.10;;;19.50;99.90;;;;;;12402502;28;20064;-39
2023/06/13 06:47:51;;;;;;;8.20;4.25;;;19.80;99.90;;;;;;12403286;28;20137;-39
2023/06/13 06:53:55;;;;;;;6.80;3.95;;;20.10;99.90;;;;;;12419260;28;20545;-39
2023/06/13 06:59:57;;;;;;;7.28;3.70;;;20.50;99.90;;;;;;12400032;28;20050;-39
2023/06/13 07:05:59;;;;;;;10.52;3.72;;;20.90;99.90;;;;;;12407249;28;20410;-39
2023/06/13 07:12:01;;;;;;;10.68;4.28;;;20.90;99.90;;;;;;12406173;28;20097;-38
2023/06/13 07:18:03;;;;;;;9.45;3.80;;;20.80;99.90;;;;;;12396490;28;20054;-39
2023/06/13 07:24:05;;;;;;;11.63;5.57;;;20.60;99.90;;;;;;12392691;28;20058;-38
2023/06/13 07:30:10;;;;;;;8.88;4.05;;;20.50;99.90;;;;;;12393069;28;20050;-39
2023/06/13 07:36:13;;;;;;;11.13;4.10;;;20.60;99.90;;;;;;12404900;28;20046;-39
2023/06/13 07:42:15;;;;;;;9.95;4.30;;;20.70;99.90;;;;;;12400533;28;20655;-39
2023/06/13 07:48:16;;;;;;;8.95;3.90;;;20.80;99.90;;;;;;12393459;28;20081;-38
2023/06/13 07:54:18;;;;;;;6.65;3.63;;;20.80;99.90;;;;;;12402814;28;20576;-39
2023/06/13 08:00:21;;;;;;;8.27;4.40;;;21.00;99.90;;;;;;12403591;28;20065;-38
2023/06/13 08:06:22;;;;;;;6.93;3.80;;;20.90;99.90;;;;;;12400923;28;20141;-38
2023/06/13 08:12:24;;;;;;;8.02;3.97;;;21.30;99.90;;;;;;12400108;28;20061;-39
2023/06/13 08:18:26;;;;;;;7.38;4.05;;;21.40;99.90;;;;;;12404269;28;20136;-39
2023/06/13 08:24:28;;;;;;;6.38;3.83;;;21.50;99.90;;;;;;12400929;28;20044;-39
2023/06/13 08:30:30;;;;;;;8.13;3.95;;;21.70;99.90;;;;;;12403414;28;20293;-39
2023/06/13 08:36:35;;;;;;;10.00;4.10;;;21.80;99.90;;;;;;12402381;28;20050;-39
2023/06/13 08:42:39;;;;;;;9.48;3.75;;;21.80;99.90;;;;;;12397717;28;20049;-39
2023/06/13 08:48:42;;;;;;;11.88;3.60;;;22.10;99.90;;;;;;12411292;28;20181;-39
2023/06/13 08:54:47;;;;;;;6.38;3.55;;;22.20;99.90;;;;;;12400850;28;20077;-39
2023/06/13 09:01:09;;;;;;;5.65;3.80;;;22.40;99.90;;;;;;12407066;28;20126;-39
2023/06/13 09:07:12;;;;;;;6.27;3.63;;;22.30;99.90;;;;;;12395643;28;20053;-39
2023/06/13 09:13:16;;;;;;;6.78;3.78;;;22.60;99.90;;;;;;12399401;28;20082;-39
2023/06/13 09:19:18;;;;;;;6.38;3.42;;;22.90;99.90;;;;;;12399292;28;20442;-40
2023/06/13 09:25:21;;;;;;;8.27;3.45;;;23.20;99.90;;;;;;12417871;28;20034;-39
2023/06/13 09:31:28;;;;;;;5.35;3.40;;;23.40;99.90;;;;;;12435486;28;20054;-39
2023/06/13 09:37:32;;;;;;;5.90;3.45;;;23.40;99.90;;;;;;12403076;28;20065;-39
2023/06/13 09:43:36;;;;;;;6.55;3.05;;;23.60;99.90;;;;;;12410508;28;20046;-39
2023/06/13 09:49:38;;;;;;;7.80;3.63;;;23.60;99.90;;;;;;12411336;28;20486;-39
2023/06/13 09:56:00;;;;;;;5.85;3.30;;;23.60;99.90;;;;;;12406546;28;20061;-40
2023/06/13 10:02:03;;;;;;;8.38;3.30;;;23.90;99.90;;;;;;12420197;28;20096;-39
2023/06/13 10:08:05;;;;;;;6.38;3.20;;;24.30;99.90;;;;;;12417979;28;20089;-39
2023/06/13 10:14:11;;;;;;;6.55;3.15;;;23.90;99.90;;;;;;12414892;28;20486;-39
2023/06/13 10:20:17;;;;;;;7.38;3.60;;;24.20;99.90;;;;;;12412170;28;20057;-39
2023/06/13 10:26:36;;;;;;;6.72;3.33;;;24.70;99.90;;;;;;12412540;28;20049;-39
2023/06/13 10:32:59;;;;;;;6.93;3.00;;;24.10;99.90;;;;;;12415496;28;20053;-39
2023/06/13 10:39:10;;;;;;;6.90;3.33;;;24.30;99.90;;;;;;12408557;28;20115;-40
2023/06/13 10:45:21;;;;;;;9.10;3.75;;;24.50;99.90;;;;;;12407440;28;20034;-40
2023/06/13 10:51:29;;;;;;;7.50;3.40;;;25.30;99.90;;;;;;12403015;28;20049;-39
2023/06/13 10:57:52;;;;;;;4.78;3.25;;;24.90;99.90;;;;;;12425611;28;21061;-39
2023/06/13 11:04:20;;;;;;;6.30;3.50;;;24.70;99.90;;;;;;12409011;28;20042;-40
2023/06/13 11:10:24;;;;;;;7.18;3.47;;;25.10;99.90;;;;;;12409055;28;20092;-40
2023/06/13 11:16:38;;;;;;;7.20;3.17;;;24.50;99.90;;;;;;12417253;28;20050;-39
2023/06/13 11:22:43;;;;;;;9.40;3.42;;;25.00;99.90;;;;;;12412078;28;20042;-40
2023/06/13 11:28:53;;;;;;;8.55;4.00;;;25.30;99.90;;;;;;12405804;28;20054;-41
2023/06/13 11:35:00;;;;;;;7.68;3.58;;;24.90;99.90;;;;;;12406616;28;20414;-41
2023/06/13 11:41:02;;;;;;;9.18;4.10;;;24.50;99.90;;;;;;12396593;28;20490;-39
2023/06/13 11:47:04;;;;;;;6.73;3.50;;;25.00;99.90;;;;;;12399040;28;20061;-39
2023/06/13 11:53:09;;;;;;;8.40;3.65;;;25.20;99.90;;;;;;12413129;28;20053;-39
2023/06/13 11:59:16;;;;;;;9.80;3.42;;;25.30;99.90;;;;;;12402573;28;20089;-39
2023/06/13 12:05:19;;;;;;;6.80;3.50;;;25.40;99.90;;;;;;12395053;28;20080;-39
2023/06/13 12:11:21;;;;;;;4.75;3.00;;;25.00;99.90;;;;;;12387987;28;20050;-40
2023/06/13 12:17:27;;;;;;;6.05;3.50;;;25.30;99.90;;;;;;12402312;28;20057;-39
2023/06/13 12:23:32;;;;;;;6.80;3.47;;;24.90;99.90;;;;;;12395389;28;20413;-39
2023/06/13 12:29:34;;;;;;;8.60;3.80;;;24.70;99.90;;;;;;12403324;28;20049;-39
2023/06/13 12:35:51;;;;;;;7.10;3.33;;;24.10;99.90;;;;;;12416254;28;20447;-39
2023/06/13 12:41:54;;;;;;;6.53;3.33;;;24.50;99.90;;;;;;12392877;28;21152;-39
2023/06/13 12:47:57;;;;;;;6.28;3.50;;;24.70;99.90;;;;;;12390802;28;20594;-40
2023/06/13 12:54:16;;;;;;;11.00;3.35;;;24.50;99.90;;;;;;12421511;28;20046;-39
2023/06/13 13:00:19;;;;;;;5.30;3.58;;;24.40;99.90;;;;;;12382068;28;20054;-39
2023/06/13 13:06:24;;;;;;;5.55;3.42;;;24.60;99.90;;;;;;12406131;28;20491;-40
2023/06/13 13:12:26;;;;;;;6.95;3.60;;;25.20;99.90;;;;;;12402367;28;20061;-40
2023/06/13 13:18:28;;;;;;;5.53;3.42;;;25.00;99.90;;;;;;12392202;28;20080;-40
2023/06/13 13:24:30;;;;;;;5.97;3.85;;;24.70;99.90;;;;;;12395436;28;20125;-39
2023/06/13 13:30:37;;;;;;;7.75;3.47;;;24.90;99.90;;;;;;12407960;28;20388;-39
2023/06/13 13:36:53;;;;;;;7.05;3.42;;;25.10;99.90;;;;;;12402171;28;20054;-39
2023/06/13 13:42:56;;;;;;;7.55;3.63;;;24.80;99.90;;;;;;12399693;28;20400;-39
2023/06/13 13:48:58;;;;;;;8.75;3.83;;;25.00;99.90;;;;;;12409196;28;20043;-39
2023/06/13 13:55:00;;;;;;;5.20;3.47;;;24.70;99.90;;;;;;12412726;28;20480;-40
2023/06/13 14:01:02;;;;;;;12.33;3.43;;;24.70;99.90;;;;;;12398545;28;20050;-40
2023/06/13 14:07:04;;;;;;;9.50;3.67;;;24.70;99.90;;;;;;12389912;28;20058;-40
2023/06/13 14:13:06;;;;;;;6.20;3.50;;;24.80;99.90;;;;;;12404786;28;20096;-39
2023/06/13 14:19:08;;;;;;;7.60;3.37;;;24.80;99.90;;;;;;12398301;28;20085;-39
2023/06/13 14:25:11;;;;;;;5.63;3.40;;;24.60;99.60;;;;;;12419278;28;20410;-40
2023/06/13 14:31:12;;;;;;;8.10;3.67;;;24.60;99.20;;;;;;12394303;28;20050;-39
2023/06/13 14:37:16;;;;;;;5.55;3.65;;;24.90;99.90;;;;;;12414381;28;20109;-39
2023/06/13 14:43:18;;;;;;;5.47;3.60;;;24.80;97.80;;;;;;12419575;28;20057;-39
2023/06/13 14:49:21;;;;;;;8.27;3.47;;;24.80;99.90;;;;;;12402022;28;20054;-39
2023/06/13 14:55:22;;;;;;;7.88;4.10;;;24.80;96.90;;;;;;12400165;28;20050;-39
2023/06/13 15:01:25;;;;;;;6.77;3.33;;;25.00;97.60;;;;;;12411546;28;20058;-39
2023/06/13 15:07:27;;;;;;;6.20;3.90;;;25.20;99.90;;;;;;12408151;28;21018;-39
2023/06/13 15:13:28;;;;;;;7.18;3.45;;;25.10;99.50;;;;;;12408212;28;20427;-39
2023/06/13 15:19:31;;;;;;;7.10;3.67;;;24.80;96.60;;;;;;12400789;28;20042;-39
2023/06/13 15:25:33;;;;;;;6.25;3.35;;;25.00;98.90;;;;;;12415868;28;20053;-39
2023/06/13 15:31:35;;;;;;;6.60;3.60;;;25.00;99.60;;;;;;12413579;28;20049;-40
2023/06/13 15:37:37;;;;;;;6.07;3.90;;;25.20;99.70;;;;;;12413583;28;20054;-39
2023/06/13 15:43:39;;;;;;;4.30;3.60;;;25.30;99.90;;;;;;12391688;28;20045;-40
2023/06/13 15:49:41;;;;;;;7.97;3.97;;;25.40;99.90;;;;;;12403150;28;20050;-39
2023/06/13 15:55:43;;;;;;;7.67;4.37;;;25.20;99.80;;;;;;12400559;28;20046;-39
2023/06/13 16:01:45;;;;;;;10.98;3.85;;;25.30;98.70;;;;;;12393269;28;20413;-39
2023/06/13 16:07:47;;;;;;;5.77;3.87;;;25.10;99.90;;;;;;12398957;28;20053;-39
2023/06/13 16:13:49;;;;;;;7.30;3.83;;;25.20;99.90;;;;;;12401571;28;20524;-39
2023/06/13 16:19:51;;;;;;;6.93;4.10;;;25.20;99.90;;;;;;12393681;28;20080;-39
2023/06/13 16:25:54;;;;;;;6.97;4.20;;;25.40;99.90;;;;;;12401924;28;20077;-39
2023/06/13 16:31:55;;;;;;;9.68;4.20;;;25.20;99.90;;;;;;12418729;28;20058;-39
2023/06/13 16:37:58;;;;;;;9.70;4.13;;;25.10;98.80;;;;;;12413234;28;20082;-41
2023/06/13 16:44:00;;;;;;;13.50;3.97;;;25.00;96.20;;;;;;12388037;28;20034;-39
2023/06/13 16:50:02;;;;;;;5.82;3.92;;;24.90;95.90;;;;;;12418754;28;20049;-39
2023/06/13 16:56:05;;;;;;;;;;;24.60;96.20;;;;;;12429275;28;20057;-39
2023/06/13 17:02:07;;;;;;;7.72;3.92;;;24.70;96.30;;;;;;12394809;28;19936;-40
2023/06/13 17:08:09;;;;;;;7.07;4.27;;;24.70;95.10;;;;;;12401460;28;20050;-40
2023/06/13 17:14:11;;;;;;;5.67;3.53;;;24.50;94.30;;;;;;12408774;28;20153;-39
2023/06/13 17:20:13;;;;;;;6.20;4.25;;;24.40;95.90;;;;;;12400828;28;20082;-39
2023/06/13 17:26:15;;;;;;;8.33;4.30;;;24.40;95.30;;;;;;12394855;28;20514;-40
2023/06/13 17:32:16;;;;;;;6.13;3.90;;;24.40;96.00;;;;;;12386850;28;20053;-40
2023/06/13 17:38:19;;;;;;;10.07;3.73;;;24.50;95.50;;;;;;12395667;28;20061;-39
2023/06/13 17:44:21;;;;;;;4.70;3.40;;;24.50;92.60;;;;;;12404519;28;20041;-40
2023/06/13 17:50:23;;;;;;;5.57;3.67;;;24.40;91.00;;;;;;12425062;28;20050;-39
2023/06/13 17:56:26;;;;;;;10.87;3.50;;;24.40;92.30;;;;;;12392444;28;20078;-41
2023/06/13 18:02:28;;;;;;;4.63;3.25;;;24.40;92.70;;;;;;12407081;28;20038;-40
2023/06/13 18:08:30;;;;;;;7.77;3.47;;;24.60;91.10;;;;;;12415687;28;20518;-39
2023/06/13 18:14:31;;;;;;;8.32;3.78;;;24.40;88.50;;;;;;12388142;28;20046;-40
2023/06/13 18:20:34;;;;;;;6.68;3.15;;;24.00;90.10;;;;;;12394101;28;20405;-39
2023/06/13 18:26:37;;;;;;;6.28;3.42;;;23.60;88.40;;;;;;12399389;28;20046;-40
2023/06/13 18:32:39;;;;;;;4.82;3.55;;;23.50;91.20;;;;;;12410240;28;20043;-40
2023/06/13 18:38:41;;;;;;;5.55;3.25;;;23.40;89.60;;;;;;12416894;28;20077;-39
2023/06/13 18:44:44;;;;;;;6.68;3.60;;;23.20;91.50;;;;;;12399577;28;20042;-39
2023/06/13 18:50:46;;;;;;;6.07;3.58;;;23.10;93.60;;;;;;12404435;28;20050;-38
2023/06/13 18:56:48;;;;;;;9.67;3.80;;;23.00;94.30;;;;;;12422591;28;20498;-39
2023/06/13 19:02:50;;;;;;;5.80;3.63;;;22.90;93.20;;;;;;12410797;28;20057;-39
2023/06/13 19:08:53;;;;;;;7.75;3.60;;;22.90;93.40;;;;;;12399802;28;20413;-40
2023/06/13 19:14:55;;;;;;;7.05;3.22;;;22.80;94.80;;;;;;12414306;28;20484;-40
2023/06/13 19:20:57;;;;;;;8.13;3.30;;;22.60;95.90;;;;;;12408751;28;20053;-39
2023/06/13 19:26:59;;;;;;;8.80;3.40;;;22.40;97.40;;;;;;12392286;28;20046;-40
2023/06/13 19:33:02;;;;;;;8.30;3.38;;;22.20;98.10;;;;;;12396530;28;20113;-40
2023/06/13 19:39:04;;;;;;;6.32;3.13;;;22.10;98.60;;;;;;12396765;28;20050;-39
2023/06/13 19:45:06;;;;;;;14.73;3.30;;;21.90;99.80;;;;;;12410952;28;20085;-38
2023/06/13 19:51:08;;;;;;;6.05;2.97;;;21.90;99.90;;;;;;12404745;28;20050;-39
2023/06/13 19:57:20;;;;;;;10.15;3.95;;;21.70;99.90;;;;;;12391212;28;20053;-39
2023/06/13 20:03:22;;;;;;;10.25;3.00;;;21.50;99.90;;;;;;12430013;28;20077;-38
2023/06/13 20:09:24;;;;;;;6.25;2.45;;;21.30;99.90;;;;;;12420974;28;20092;-39
2023/06/13 20:15:26;;;;;;;8.30;2.40;;;21.20;99.40;;;;;;12405924;28;20054;-39
2023/06/13 20:21:28;;;;;;;6.57;2.47;;;21.00;99.40;;;;;;12409355;28;20050;-39
2023/06/13 20:27:30;;;;;;;4.22;2.53;;;20.90;98.50;;;;;;12400863;28;20046;-39
2023/06/13 20:33:32;;;;;;;8.57;2.40;;;20.80;98.10;;;;;;12432816;28;20042;-39
2023/06/13 20:39:34;;;;;;;5.32;2.38;;;20.70;97.90;;;;;;12394515;28;20046;-38
2023/06/13 20:45:38;;;;;;;5.50;2.10;;;20.50;98.40;;;;;;12399593;28;20518;-38
2023/06/13 20:51:45;;;;;;;6.65;2.00;;;20.40;98.30;;;;;;12416524;28;20042;-40
2023/06/13 20:57:52;;;;;;;5.67;2.30;;;20.30;98.10;;;;;;12392245;28;20061;-38
2023/06/13 21:03:54;;;;;;;6.13;1.90;;;20.10;99.00;;;;;;12414181;28;20046;-38
2023/06/13 21:09:56;;;;;;;4.40;1.90;;;20.00;98.90;;;;;;12391416;28;20107;-38
2023/06/13 21:15:59;;;;;;;5.57;2.00;;;19.90;99.10;;;;;;12401696;28;20085;-39
2023/06/13 21:22:01;;;;;;;6.67;2.00;;;19.80;99.60;;;;;;12390462;28;20517;-38
2023/06/13 21:28:03;;;;;;;5.72;2.30;;;19.70;99.80;;;;;;12418164;28;20050;-39
2023/06/13 21:34:05;;;;;;;3.33;1.80;;;19.50;99.90;;;;;;12402705;28;20042;-39
2023/06/13 21:40:08;;;;;;;3.88;1.77;;;19.50;99.90;;;;;;12423998;28;20147;-38
2023/06/13 21:46:10;;;;;;;5.88;1.92;;;19.20;99.90;;;;;;12383936;28;20042;-39
2023/06/13 21:52:13;;;;;;;5.32;1.90;;;19.10;99.90;;;;;;12415628;28;20136;-39
2023/06/13 21:58:17;;;;;;;4.28;1.73;;;19.00;99.90;;;;;;12415516;28;20072;-39
2023/06/13 22:04:19;;;;;;;6.05;1.90;;;18.80;99.90;;;;;;12410956;28;20073;-38
2023/06/13 22:10:21;;;;;;;10.35;1.85;;;18.80;99.90;;;;;;12414706;28;20042;-38
2023/06/13 22:16:23;;;;;;;4.13;1.77;;;18.60;99.90;;;;;;12383407;28;20061;-39
2023/06/13 22:22:27;;;;;;;8.98;2.00;;;18.60;99.90;;;;;;12401652;28;20069;-39
2023/06/13 22:28:29;;;;;;;4.15;1.92;;;18.50;99.90;;;;;;12398371;28;20078;-38
2023/06/13 22:34:41;;;;;;;3.85;2.00;;;18.50;99.90;;;;;;12410451;28;20046;-39
2023/06/13 22:40:49;;;;;;;4.60;1.90;;;18.40;99.90;;;;;;12405616;28;20049;-38
2023/06/13 22:46:52;;;;;;;4.00;1.85;;;18.40;99.90;;;;;;12421671;28;20508;-38
2023/06/13 22:52:54;;;;;;;4.10;2.00;;;18.20;99.90;;;;;;12401094;28;20053;-38
2023/06/13 22:58:56;;;;;;;6.43;2.10;;;18.20;99.90;;;;;;12420037;28;20065;-38
2023/06/13 23:04:58;;;;;;;4.25;2.20;;;18.10;99.90;;;;;;12412336;28;20084;-37
2023/06/13 23:11:00;;;;;;;6.68;1.83;;;18.10;99.90;;;;;;12397567;28;20053;-38
2023/06/13 23:17:04;;;;;;;6.47;1.93;;;18.00;99.90;;;;;;12414295;28;20054;-38
2023/06/13 23:23:06;;;;;;;5.03;1.98;;;17.90;99.90;;;;;;12394117;28;20300;-38
2023/06/13 23:29:09;;;;;;;5.00;1.95;;;17.80;99.90;;;;;;12419911;28;20058;-38
2023/06/13 23:35:12;;;;;;;5.13;1.88;;;17.80;99.90;;;;;;12415610;28;20509;-38
2023/06/13 23:41:14;;;;;;;5.67;1.90;;;17.70;99.90;;;;;;12390901;28;20081;-38
2023/06/13 23:47:16;;;;;;;7.68;1.90;;;17.60;99.90;;;;;;12422567;28;20168;-38
2023/06/13 23:53:18;;;;;;;8.00;2.10;;;17.60;99.90;;;;;;12411124;28;20078;-39
2023/06/13 23:59:20;;;;;;;6.18;2.20;;;17.50;99.90;;;;;;12402367;28;20502;-38
